createdAt,value
2023-04-30T00:01:32.531Z,12.40
2023-04-30T00:06:54.133Z,13.10
2023-04-30T00:12:16.147Z,12.20
2023-04-30T00:17:38.777Z,13.90
2023-04-30T00:23:00.188Z,13.40
2023-04-30T00:28:21.814Z,13.30
2023-04-30T00:33:43.539Z,13.00
2023-04-30T00:39:06.877Z,13.10
2023-04-30T00:44:28.871Z,15.60
2023-04-30T00:49:50.731Z,15.30
2023-04-30T00:55:14.264Z,14.80
2023-04-30T01:00:35.997Z,14.50
2023-04-30T01:06:00.224Z,14.30
2023-04-30T01:11:29.001Z,14.60
2023-04-30T01:16:55.391Z,15.40
2023-04-30T01:22:26.402Z,11.70
2023-04-30T01:28:03.020Z,11.80
2023-04-30T01:33:24.902Z,9.20
2023-04-30T01:39:07.199Z,6.40
2023-04-30T01:44:51.116Z,5.80
2023-04-30T01:50:25.086Z,5.10
2023-04-30T01:55:52.688Z,4.60
2023-04-30T02:01:29.759Z,5.10
2023-04-30T02:06:53.358Z,4.60
2023-04-30T02:12:15.075Z,4.50
2023-04-30T02:17:36.632Z,7.00
2023-04-30T02:22:58.431Z,6.80
2023-04-30T02:28:20.054Z,10.50
2023-04-30T02:33:41.889Z,9.00
2023-04-30T02:39:04.124Z,11.60
2023-04-30T02:44:26.949Z,10.50
2023-04-30T02:49:49.212Z,9.30
2023-04-30T02:55:13.436Z,9.70
2023-04-30T03:00:38.266Z,9.50
2023-04-30T03:06:00.509Z,10.90
2023-04-30T03:11:22.516Z,11.20
2023-04-30T03:16:44.545Z,10.00
2023-04-30T03:22:07.677Z,9.40
2023-04-30T03:27:29.411Z,9.20
2023-04-30T03:32:51.051Z,10.20
2023-04-30T03:38:13.972Z,10.60
2023-04-30T03:43:36.609Z,10.10
2023-04-30T03:48:59.051Z,8.50
2023-04-30T03:54:21.368Z,9.70
2023-04-30T03:59:43.597Z,10.40
2023-04-30T04:05:05.982Z,10.00
2023-04-30T04:10:27.754Z,9.60
2023-04-30T04:15:49.469Z,9.90
2023-04-30T04:21:13.216Z,10.30
2023-04-30T04:26:38.057Z,10.00
2023-04-30T04:32:04.696Z,10.90
2023-04-30T04:37:27.116Z,10.40
2023-04-30T04:42:52.170Z,10.80
2023-04-30T04:48:14.412Z,9.70
2023-04-30T04:53:36.753Z,10.70
2023-04-30T04:58:59.173Z,8.90
2023-04-30T05:04:20.902Z,9.40
2023-04-30T05:09:42.621Z,9.00
2023-04-30T05:15:04.855Z,8.70
2023-04-30T05:20:30.099Z,9.00
2023-04-30T05:25:52.832Z,8.80
2023-04-30T05:31:14.792Z,9.40
2023-04-30T05:36:36.689Z,9.10
2023-04-30T05:41:58.716Z,9.50
2023-04-30T05:47:20.854Z,8.80
2023-04-30T05:52:42.343Z,7.70
2023-04-30T05:58:03.803Z,8.20
2023-04-30T06:03:26.150Z,9.70
2023-04-30T06:08:47.862Z,9.00
2023-04-30T06:14:10.448Z,8.50
2023-04-30T06:19:32.528Z,8.00
2023-04-30T06:24:54.294Z,19.00
2023-04-30T06:30:16.391Z,9.60
2023-04-30T06:35:38.128Z,10.00
2023-04-30T06:40:59.942Z,16.00
2023-04-30T06:46:22.202Z,11.10
2023-04-30T06:51:44.101Z,7.90
2023-04-30T06:57:05.818Z,23.90
2023-04-30T07:02:27.830Z,13.90
2023-04-30T07:07:50.299Z,16.30
2023-04-30T07:13:12.090Z,13.70
2023-04-30T07:18:33.543Z,13.40
2023-04-30T07:23:55.477Z,7.80
2023-04-30T07:29:18.401Z,7.30
2023-04-30T07:34:40.039Z,6.10
2023-04-30T07:40:01.772Z,5.80
2023-04-30T07:45:23.692Z,7.30
2023-04-30T07:50:50.556Z,6.00
2023-04-30T07:56:13.165Z,9.00
2023-04-30T08:01:34.750Z,6.10
2023-04-30T08:06:56.781Z,7.30
2023-04-30T08:12:19.261Z,4.80
2023-04-30T08:17:41.234Z,4.60
2023-04-30T08:23:02.826Z,4.20
2023-04-30T08:28:24.202Z,4.10
2023-04-30T08:33:45.787Z,4.10
2023-04-30T08:39:08.513Z,4.40
2023-04-30T08:44:31.754Z,3.50
2023-04-30T08:49:53.490Z,4.40
2023-04-30T08:55:15.617Z,3.50
2023-04-30T09:00:39.713Z,3.90
2023-04-30T09:06:01.953Z,4.00
2023-04-30T09:11:28.620Z,3.90
2023-04-30T09:16:51.539Z,2.80
2023-04-30T09:22:24.191Z,3.30
2023-04-30T09:27:48.097Z,3.40
2023-04-30T09:33:11.868Z,3.80
2023-04-30T09:38:34.316Z,3.10
2023-04-30T09:43:57.196Z,3.60
2023-04-30T09:49:19.616Z,3.60
2023-04-30T09:54:44.513Z,3.70
2023-04-30T10:00:08.855Z,3.10
2023-04-30T10:05:31.079Z,3.40
2023-04-30T10:11:01.286Z,3.30
2023-04-30T10:16:37.606Z,3.20
2023-04-30T10:22:01.677Z,3.30
2023-04-30T10:27:23.228Z,3.20
2023-04-30T10:33:11.582Z,2.80
2023-04-30T10:38:34.541Z,2.70
2023-04-30T10:44:02.301Z,2.80
2023-04-30T10:49:26.167Z,2.90
2023-04-30T10:54:50.122Z,3.30
2023-04-30T11:00:13.324Z,3.70
2023-04-30T11:05:39.489Z,3.10
2023-04-30T11:11:01.898Z,2.80
2023-04-30T11:16:30.815Z,3.40
2023-04-30T11:22:04.561Z,2.60
2023-04-30T11:27:28.746Z,2.70
2023-04-30T11:32:50.428Z,3.00
2023-04-30T11:38:16.316Z,2.70
2023-04-30T11:43:38.141Z,2.70
2023-04-30T11:49:00.172Z,2.50
2023-04-30T11:54:21.696Z,2.40
2023-04-30T11:59:44.034Z,2.60
2023-04-30T12:05:14.074Z,2.50
2023-04-30T12:10:36.458Z,3.10
2023-04-30T12:15:59.856Z,2.30
2023-04-30T12:21:23.130Z,2.20
2023-04-30T12:26:45.420Z,2.60
2023-04-30T12:32:06.954Z,2.60
2023-04-30T12:37:28.975Z,4.20
2023-04-30T12:42:51.810Z,3.00
2023-04-30T12:48:14.685Z,2.30
2023-04-30T12:53:45.357Z,2.40
2023-04-30T12:59:16.331Z,2.20
2023-04-30T13:04:38.131Z,2.40
2023-04-30T13:09:59.932Z,2.50
2023-04-30T13:15:21.469Z,2.40
2023-04-30T13:20:45.687Z,2.70
2023-04-30T13:26:07.911Z,2.50
2023-04-30T13:31:29.579Z,2.90
2023-04-30T13:36:53.530Z,2.20
2023-04-30T13:42:15.204Z,2.30
2023-04-30T13:47:39.014Z,2.30
2023-04-30T13:53:00.705Z,2.20
2023-04-30T13:58:24.788Z,2.20
2023-04-30T14:03:47.941Z,2.30
2023-04-30T14:09:09.462Z,2.40
2023-04-30T14:14:32.357Z,2.20
2023-04-30T14:19:54.352Z,2.60
2023-04-30T14:25:16.581Z,2.20
2023-04-30T14:30:38.655Z,2.30
2023-04-30T14:36:01.003Z,2.00
2023-04-30T14:41:22.762Z,3.10
2023-04-30T14:46:44.079Z,3.30
2023-04-30T14:52:06.034Z,2.60
2023-04-30T14:57:28.191Z,2.50
2023-04-30T15:02:51.121Z,3.10
2023-04-30T15:08:12.705Z,2.50
2023-04-30T15:13:34.377Z,2.20
2023-04-30T15:18:59.527Z,2.20
2023-04-30T15:24:22.600Z,3.60
2023-04-30T15:29:44.582Z,4.00
2023-04-30T15:35:06.924Z,2.30
2023-04-30T15:40:28.988Z,1.90
2023-04-30T15:45:52.108Z,2.00
2023-04-30T15:51:13.895Z,2.30
2023-04-30T15:56:36.185Z,2.20
2023-04-30T16:01:58.644Z,2.30
2023-04-30T16:07:20.368Z,2.00
2023-04-30T16:12:42.503Z,2.10
2023-04-30T16:18:06.920Z,1.90
2023-04-30T16:23:28.806Z,2.30
2023-04-30T16:28:50.283Z,1.90
2023-04-30T16:34:12.374Z,1.90
2023-04-30T16:39:34.048Z,2.60
2023-04-30T16:44:55.625Z,2.60
2023-04-30T16:50:18.555Z,2.40
2023-04-30T16:55:41.803Z,3.00
2023-04-30T17:01:04.768Z,2.80
2023-04-30T17:06:26.584Z,3.60
2023-04-30T17:11:48.413Z,4.80
2023-04-30T17:17:10.090Z,3.00
2023-04-30T17:22:38.288Z,2.90
2023-04-30T17:28:02.768Z,4.10
2023-04-30T17:33:26.778Z,3.70
2023-04-30T17:38:48.350Z,3.70
2023-04-30T17:44:11.885Z,3.40
2023-04-30T17:49:33.465Z,4.10
2023-04-30T17:54:56.911Z,3.10
2023-04-30T18:00:18.673Z,2.70
2023-04-30T18:05:40.256Z,2.60
2023-04-30T18:11:03.699Z,2.80
2023-04-30T18:16:25.678Z,3.20
2023-04-30T18:21:47.505Z,4.40
2023-04-30T18:27:10.225Z,25.10
2023-04-30T18:32:32.701Z,8.90
2023-04-30T18:37:55.809Z,6.50
2023-04-30T18:43:17.463Z,5.70
2023-04-30T18:48:39.334Z,4.80
2023-04-30T18:54:01.341Z,5.20
2023-04-30T18:59:23.364Z,5.10
2023-04-30T19:04:45.037Z,6.90
2023-04-30T19:10:07.221Z,7.40
2023-04-30T19:15:29.859Z,5.90
2023-04-30T19:21:00.170Z,6.40
2023-04-30T19:26:23.163Z,7.10
2023-04-30T19:31:45.540Z,6.40
2023-04-30T19:37:07.417Z,8.50
2023-04-30T19:42:30.433Z,11.60
2023-04-30T19:47:52.510Z,17.50
2023-04-30T19:53:16.304Z,17.20
2023-04-30T19:58:38.242Z,17.80
2023-04-30T20:04:00.387Z,16.70
2023-04-30T20:09:23.191Z,17.10
2023-04-30T20:14:46.929Z,27.60
2023-04-30T20:20:09.803Z,24.70
2023-04-30T20:25:31.355Z,18.50
2023-04-30T20:30:53.052Z,15.50
2023-04-30T20:36:15.113Z,23.10
2023-04-30T20:41:36.990Z,18.20
2023-04-30T20:46:58.733Z,15.30
2023-04-30T20:52:20.222Z,15.60
2023-04-30T20:57:42.020Z,13.60
2023-04-30T21:03:04.556Z,12.20
2023-04-30T21:08:26.667Z,11.90
2023-04-30T21:13:51.275Z,11.60
2023-04-30T21:19:13.483Z,10.50
2023-04-30T21:24:35.538Z,12.10
2023-04-30T21:29:57.572Z,11.90
2023-04-30T21:35:19.782Z,12.00
2023-04-30T21:40:42.824Z,11.70
2023-04-30T21:46:04.590Z,12.00
2023-04-30T21:51:26.683Z,11.70
2023-04-30T21:56:48.515Z,10.90
2023-04-30T22:02:23.256Z,12.00
2023-04-30T22:07:47.535Z,13.90
2023-04-30T22:13:09.449Z,14.40
2023-04-30T22:18:31.106Z,17.20
2023-04-30T22:23:53.513Z,15.50
2023-04-30T22:29:15.778Z,15.60
2023-04-30T22:34:40.311Z,15.10
2023-04-30T22:40:01.900Z,18.60
2023-04-30T22:45:23.928Z,19.10
2023-04-30T22:50:46.193Z,17.40
2023-04-30T22:56:08.192Z,16.70
2023-04-30T23:01:30.263Z,19.00
2023-04-30T23:06:53.050Z,19.40
2023-04-30T23:12:14.788Z,18.10
2023-04-30T23:17:36.784Z,18.40
2023-04-30T23:22:58.135Z,17.50
2023-04-30T23:28:19.965Z,16.30
2023-04-30T23:33:41.998Z,16.20
2023-04-30T23:39:04.928Z,16.20
2023-04-30T23:44:26.556Z,16.60
2023-04-30T23:49:48.904Z,17.10
2023-04-30T23:55:12.248Z,15.70
